This is the latest recevied weather packets stored in our database for station/object N3FYI-5. If no packets are shown the sender has not sent any weather packets the latest 10 day(s).
| Time | Temp. | Humidity | Pressure | Rain* | Wind** | Luminosity | Snow |
|---|---|---|---|---|---|---|---|
| 1777950165 | 12.22° C | 84% | 1014.9 hPa | 1.02 mm | - | - | - |
| 1777949683 | 12.78° C | 83% | 1015 hPa | 1.02 mm | - | - | - |
| 1777949203 | 12.78° C | 81% | 1015.1 hPa | 1.02 mm | - | - | - |
| 1777948723 | 13.89° C | 78% | 1015.2 hPa | 1.02 mm | - | - | - |
| 1777948243 | 15° C | 72% | 1015.7 hPa | 0.25 mm | - | - | - |
| 1777947763 | 15° C | 67% | 1015.4 hPa | 0 mm | - | - | - |
| 1777947283 | 15.56° C | 64% | 1015.4 hPa | 0 mm | - | - | - |
| 1777946803 | 16.11° C | 58% | 1015.7 hPa | 0 mm | - | - | - |
| 1777946323 | 16.11° C | 56% | 1015.5 hPa | 0 mm | - | - | - |
| 1777945846 | 16.11° C | 55% | 1015.5 hPa | 0 mm | - | - | - |
| 1777945364 | 16.11° C | 55% | 1015.4 hPa | 0 mm | - | - | - |
| 1777944883 | 16.11° C | 54% | 1015.3 hPa | 0 mm | - | - | - |
| 1777944403 | 16.11° C | 53% | 1015.3 hPa | 0 mm | - | - | - |
| 1777943923 | 16.11° C | 52% | 1015 hPa | 0 mm | - | - | - |
| 1777943443 | 16.11° C | 50% | 1014.9 hPa | 0 mm | - | - | - |
| 1777942963 | 16.11° C | 49% | 1015 hPa | 0 mm | - | - | - |
| 1777942485 | 16.11° C | 49% | 1015 hPa | 0 mm | - | - | - |
| 1777942003 | 16.67° C | 48% | 1015 hPa | 0 mm | - | - | - |
| 1777941523 | 16.67° C | 47% | 1014.8 hPa | 0 mm | - | - | - |
| 1777941043 | 17.22° C | 47% | 1014.8 hPa | 0 mm | - | - | - |
| 1777940563 | 17.22° C | 46% | 1014.8 hPa | 0 mm | - | - | - |
| 1777940083 | 17.78° C | 45% | 1014.7 hPa | 0 mm | - | - | - |
| 1777939603 | 17.78° C | 45% | 1014.6 hPa | 0 mm | - | - | - |
| 1777938672 | 17.78° C | 44% | 1014.5 hPa | 0 mm | - | - | - |
| 1777938194 | 18.33° C | 44% | 1014.5 hPa | 0 mm | - | - | - |
* Rain latest hour (hover to see other rain measurements)
** Current wind speed in m/s (hover to see current wind gust speed)